Joao Paulo, Brazil
Current Conditions -  °F | °C
As of 2:00 PM on Monday 20 Oct 2014 (Local Time) from SBCY Reporting Station
Broken Clouds Broken Clouds  
Wind Chill: 81°   Ceiling: 10000
Heat Index: 83°   Visibility: 6mi
Dew Point: 66°   Wind: 3mph
Humidity: 61%   Direction: 150°SSE
Pressure: 29.94"   Gusts: NA
Location:  14.57°S, 56.72°W
Report Text: SBCY 201800Z 15003KT 9999 FEW020 BKN100 27/19 Q1014
Loading
Personal Weather Stations






























Interactive Weather Map
Tropical Storm Tracking
New forecast layout! Learn more

10-Day Weather Forecast

Advertisements
Track Severe Weather on mobile